Time;durP1;ratioP1;P1;durP2;ratioP2;P2;SDS_P1;SDS_P2;PMS_P1;PMS_P2;Temp;Humidity;BMP_temperature;BMP_pressure;BME280_temperature;BME280_humidity;BME280_pressure;Samples;Min_cycle;Max_cycle;Signal;HPM_P1;HPM_P2
2022/10/13 00:01:20;;;;;;;137.90;35.90;;;;;;;2.32;100.00;100272.63;100706;1337;23105;-36
2022/10/13 00:03:46;;;;;;;69.30;29.30;;;;;;;2.30;100.00;100276.88;100696;1341;24424;-35
2022/10/13 00:06:13;;;;;;;99.60;32.20;;;;;;;2.28;100.00;100279.28;100665;1333;23117;-36
2022/10/13 00:08:41;;;;;;;101.60;35.30;;;;;;;2.26;100.00;100280.92;100750;1338;23062;-31
2022/10/13 00:11:12;;;;;;;95.00;39.40;;;;;;;2.26;100.00;100281.28;100668;1333;22889;-31
2022/10/13 00:13:38;;;;;;;44.80;22.90;;;;;;;2.27;100.00;100284.32;100723;1341;23154;-31
2022/10/13 00:16:03;;;;;;;44.50;21.50;;;;;;;2.32;100.00;100290.46;100669;1340;22751;-35
2022/10/13 00:18:29;;;;;;;25.50;15.90;;;;;;;2.40;100.00;100287.91;100731;1341;23133;-31
2022/10/13 00:20:55;;;;;;;33.60;15.10;;;;;;;2.44;100.00;100294.69;100669;1341;23219;-37
2022/10/13 00:23:20;;;;;;;44.10;21.30;;;;;;;2.39;100.00;100289.58;100688;1339;25835;-35
2022/10/13 00:25:47;;;;;;;42.90;18.30;;;;;;;2.34;100.00;100285.52;100651;1341;24381;-35
2022/10/13 00:28:14;;;;;;;63.20;26.60;;;;;;;2.32;100.00;100279.02;100679;1341;24038;-37
2022/10/13 00:30:40;;;;;;;75.30;32.60;;;;;;;2.27;100.00;100281.91;100679;1333;22752;-31
2022/10/13 00:33:05;;;;;;;119.90;66.70;;;;;;;2.25;100.00;100281.19;100708;1341;22892;-30
2022/10/13 00:35:31;;;;;;;80.70;41.90;;;;;;;2.24;100.00;100283.70;100574;1335;23125;-31
2022/10/13 00:37:57;;;;;;;60.50;28.10;;;;;;;2.23;100.00;100281.81;100718;1333;24374;-33
2022/10/13 00:40:22;;;;;;;55.00;24.90;;;;;;;2.18;100.00;100274.99;100447;1341;23099;-31
2022/10/13 00:42:48;;;;;;;40.90;19.10;;;;;;;2.13;100.00;100271.31;100676;1341;24449;-31
2022/10/13 00:45:17;;;;;;;29.60;14.80;;;;;;;2.15;100.00;100270.16;100723;1341;23219;-35
2022/10/13 00:47:45;;;;;;;32.90;18.00;;;;;;;2.16;100.00;100272.83;100683;1340;24399;-35
2022/10/13 00:50:13;;;;;;;30.90;17.30;;;;;;;2.17;100.00;100270.12;100483;1344;25732;-35
2022/10/13 00:52:38;;;;;;;42.60;19.60;;;;;;;2.18;100.00;100272.73;100720;1333;22762;-35
2022/10/13 00:55:04;;;;;;;46.70;18.40;;;;;;;2.15;100.00;100270.15;100684;1341;24496;-31
2022/10/13 00:57:30;;;;;;;38.10;18.80;;;;;;;2.14;100.00;100271.25;100685;1341;22497;-33
2022/10/13 00:59:56;;;;;;;48.10;21.70;;;;;;;2.14;100.00;100270.54;100643;1333;23113;-32
2022/10/13 01:02:22;;;;;;;47.00;17.10;;;;;;;2.18;100.00;100269.36;100760;1333;22751;-36
2022/10/13 01:04:48;;;;;;;41.40;21.80;;;;;;;2.19;100.00;100260.77;100659;1341;24382;-32
2022/10/13 01:07:15;;;;;;;39.70;18.50;;;;;;;2.21;100.00;100259.39;100709;1341;24383;-36
2022/10/13 01:09:41;;;;;;;33.20;20.10;;;;;;;2.19;100.00;100255.13;100712;1341;22501;-32
2022/10/13 01:12:14;;;;;;;49.80;18.80;;;;;;;2.19;100.00;100254.30;100455;1335;23238;-35
2022/10/13 01:14:47;;;;;;;34.90;22.10;;;;;;;2.20;100.00;100252.41;100680;1333;22738;-36
2022/10/13 01:17:19;;;;;;;48.10;23.50;;;;;;;2.22;100.00;100249.80;100754;1341;24453;-31
2022/10/13 01:19:50;;;;;;;48.20;22.10;;;;;;;2.22;100.00;100247.81;100670;1325;24372;-32
2022/10/13 01:22:19;;;;;;;48.90;16.20;;;;;;;2.19;100.00;100247.88;100740;1341;25385;-36
2022/10/13 01:24:53;;;;;;;29.60;14.30;;;;;;;2.14;100.00;100246.48;100703;1341;22895;-31
2022/10/13 01:27:22;;;;;;;20.70;12.20;;;;;;;2.09;100.00;100244.10;100668;1341;23226;-35
2022/10/13 01:29:52;;;;;;;28.50;13.40;;;;;;;2.04;100.00;100244.29;100717;1341;24228;-35
2022/10/13 01:32:23;;;;;;;25.80;16.10;;;;;;;1.99;100.00;100246.84;100734;1333;22894;-31
2022/10/13 01:34:52;;;;;;;40.60;21.00;;;;;;;1.94;100.00;100242.45;100522;1333;24383;-35
2022/10/13 01:37:25;;;;;;;36.90;19.20;;;;;;;1.88;100.00;100241.83;100558;1332;22863;-35
2022/10/13 01:39:52;;;;;;;44.30;19.50;;;;;;;1.84;100.00;100240.54;100682;1341;22551;-30
2022/10/13 01:42:21;;;;;;;29.20;17.10;;;;;;;1.86;100.00;100237.40;100611;1341;24248;-34
2022/10/13 01:44:49;;;;;;;45.40;24.00;;;;;;;1.85;100.00;100232.17;100703;1332;24334;-35
2022/10/13 01:47:15;;;;;;;41.10;22.70;;;;;;;1.85;100.00;100230.11;100665;1340;24450;-31
2022/10/13 01:49:40;;;;;;;36.80;19.40;;;;;;;1.84;100.00;100233.30;100302;1343;22774;-31
2022/10/13 01:52:09;;;;;;;43.30;21.20;;;;;;;1.82;100.00;100236.29;100674;1339;22854;-35
2022/10/13 01:54:35;;;;;;;33.90;18.40;;;;;;;1.80;100.00;100232.25;100681;1338;22751;-35
2022/10/13 01:57:00;;;;;;;37.60;17.80;;;;;;;1.80;100.00;100228.85;100665;1340;24495;-31
2022/10/13 01:59:27;;;;;;;11.70;8.80;;;;;;;1.84;100.00;100226.78;100513;1339;22511;-37
2022/10/13 02:01:59;;;;;;;48.70;16.10;;;;;;;1.85;100.00;100221.27;100667;1341;24373;-35
2022/10/13 02:04:24;;;;;;;37.40;15.90;;;;;;;1.89;100.00;100219.93;100536;1334;22507;-32
2022/10/13 02:06:55;;;;;;;48.90;21.70;;;;;;;1.93;100.00;100221.88;100669;1340;22752;-32
2022/10/13 02:09:25;;;;;;;50.20;21.50;;;;;;;1.99;100.00;100221.44;100456;1336;23229;-34
2022/10/13 02:11:56;;;;;;;57.80;22.90;;;;;;;2.05;100.00;100219.14;100615;1336;24483;-31
2022/10/13 02:14:25;;;;;;;54.80;22.50;;;;;;;2.09;100.00;100219.21;100509;1341;23253;-30
2022/10/13 02:16:50;;;;;;;50.20;20.20;;;;;;;2.09;100.00;100220.23;100728;1341;24602;-34
2022/10/13 02:19:16;;;;;;;31.30;17.60;;;;;;;2.06;100.00;100220.98;100694;1341;23231;-30
2022/10/13 02:21:41;;;;;;;43.80;16.60;;;;;;;2.02;100.00;100218.64;100664;1338;23230;-31
2022/10/13 02:24:07;;;;;;;41.60;20.30;;;;;;;1.98;100.00;100212.97;100465;1341;23093;-35
2022/10/13 02:26:35;;;;;;;33.80;19.30;;;;;;;1.95;100.00;100213.27;100646;1341;23227;-34
2022/10/13 02:29:07;;;;;;;34.90;17.10;;;;;;;1.92;100.00;100213.66;100712;1341;24488;-34
2022/10/13 02:31:32;;;;;;;33.50;17.50;;;;;;;1.90;100.00;100208.69;100705;1341;22621;-36
2022/10/13 02:33:58;;;;;;;27.90;16.80;;;;;;;1.89;100.00;100210.02;100737;1341;22748;-32
2022/10/13 02:36:24;;;;;;;29.40;16.40;;;;;;;1.86;100.00;100208.45;100509;1341;22780;-35
2022/10/13 02:38:49;;;;;;;34.20;17.90;;;;;;;1.82;100.00;100209.09;100546;1341;24700;-35
2022/10/13 02:41:15;;;;;;;42.60;18.10;;;;;;;1.79;100.00;100208.31;100631;1341;23227;-32
2022/10/13 02:43:40;;;;;;;39.70;17.80;;;;;;;1.75;100.00;100206.29;100689;1333;23056;-36
2022/10/13 02:46:06;;;;;;;36.60;18.50;;;;;;;1.73;100.00;100203.16;100519;1326;22751;-32
2022/10/13 02:48:31;;;;;;;34.80;16.90;;;;;;;1.71;100.00;100200.11;100404;1336;22519;-31
2022/10/13 02:50:57;;;;;;;41.50;21.60;;;;;;;1.68;100.00;100200.70;100705;1341;24462;-33
2022/10/13 02:53:23;;;;;;;33.50;14.70;;;;;;;1.66;100.00;100196.06;100705;1317;22525;-35
2022/10/13 02:55:48;;;;;;;35.90;16.50;;;;;;;1.64;100.00;100196.98;100652;1339;26490;-32
2022/10/13 02:58:14;;;;;;;54.20;21.70;;;;;;;1.61;100.00;100196.45;100675;1340;24383;-36
2022/10/13 03:00:39;;;;;;;32.50;16.90;;;;;;;1.59;100.00;100196.94;100695;1325;22889;-33
2022/10/13 03:03:05;;;;;;;38.90;18.90;;;;;;;1.55;100.00;100192.34;100660;1341;22765;-36
2022/10/13 03:05:31;;;;;;;34.10;18.70;;;;;;;1.51;100.00;100186.98;100763;1341;22773;-32
2022/10/13 03:07:57;;;;;;;25.80;14.20;;;;;;;1.49;100.00;100183.65;100746;1341;22874;-31
2022/10/13 03:10:22;;;;;;;26.00;15.40;;;;;;;1.47;100.00;100183.98;100749;1341;22531;-36
2022/10/13 03:12:48;;;;;;;34.60;17.50;;;;;;;1.47;100.00;100191.40;100703;1329;24342;-36
2022/10/13 03:15:14;;;;;;;29.80;18.40;;;;;;;1.49;100.00;100190.20;100699;1340;23112;-36
2022/10/13 03:17:39;;;;;;;31.60;16.60;;;;;;;1.52;100.00;100190.98;100683;1316;25810;-36
2022/10/13 03:20:06;;;;;;;31.50;16.70;;;;;;;1.53;100.00;100198.12;100715;1341;24372;-32
2022/10/13 03:22:32;;;;;;;35.40;17.80;;;;;;;1.49;100.00;100195.33;100585;1336;23106;-36
2022/10/13 03:24:59;;;;;;;21.70;14.40;;;;;;;1.44;100.00;100190.75;100744;1340;24362;-32
2022/10/13 03:27:24;;;;;;;55.50;19.60;;;;;;;1.37;100.00;100190.52;100704;1337;23892;-31
2022/10/13 03:29:50;;;;;;;35.10;16.80;;;;;;;1.31;100.00;100190.30;100691;1341;24390;-36
2022/10/13 03:32:15;;;;;;;38.50;17.30;;;;;;;1.29;100.00;100190.84;100669;1336;23105;-36
2022/10/13 03:34:41;;;;;;;31.90;18.80;;;;;;;1.28;100.00;100188.10;100645;1333;22759;-36
2022/10/13 03:37:07;;;;;;;45.70;17.80;;;;;;;1.28;100.00;100183.48;100663;1340;22506;-36
2022/10/13 03:39:32;;;;;;;39.60;18.50;;;;;;;1.30;100.00;100189.20;100756;1341;23101;-32
2022/10/13 03:41:58;;;;;;;42.80;18.10;;;;;;;1.32;100.00;100186.92;100724;1340;23215;-37
2022/10/13 03:44:23;;;;;;;41.30;18.30;;;;;;;1.30;100.00;100188.24;100670;1339;24287;-37
2022/10/13 03:46:49;;;;;;;31.90;16.50;;;;;;;1.27;100.00;100186.20;100663;1333;22761;-36
2022/10/13 03:49:16;;;;;;;27.60;15.70;;;;;;;1.27;100.00;100182.73;100672;1334;25278;-36
2022/10/13 03:51:41;;;;;;;30.50;17.40;;;;;;;1.25;100.00;100185.82;100694;1340;23112;-36
2022/10/13 03:54:10;;;;;;;30.30;17.30;;;;;;;1.27;100.00;100179.04;100697;1333;22762;-36
2022/10/13 03:56:36;;;;;;;30.90;16.70;;;;;;;1.25;100.00;100183.71;100796;1341;24384;-31
2022/10/13 03:59:03;;;;;;;34.30;17.20;;;;;;;1.22;100.00;100182.53;100653;1341;22885;-36
2022/10/13 04:01:29;;;;;;;27.90;16.20;;;;;;;1.20;100.00;100179.55;100657;1341;22718;-34
2022/10/13 04:03:55;;;;;;;31.30;19.50;;;;;;;1.18;100.00;100179.66;100684;1341;23115;-36
2022/10/13 04:06:21;;;;;;;27.10;17.70;;;;;;;1.18;100.00;100186.05;100723;1341;23227;-36
2022/10/13 04:08:47;;;;;;;62.00;18.80;;;;;;;1.15;100.00;100180.21;100646;1340;24382;-36
2022/10/13 04:11:13;;;;;;;41.00;20.50;;;;;;;1.14;100.00;100180.89;100488;1336;23573;-36
2022/10/13 04:13:39;;;;;;;27.40;15.30;;;;;;;1.16;100.00;100181.44;100764;1337;23223;-31
2022/10/13 04:16:07;;;;;;;46.30;22.00;;;;;;;1.20;100.00;100185.38;100783;1341;23090;-37
2022/10/13 04:18:32;;;;;;;42.90;21.20;;;;;;;1.21;100.00;100185.80;100753;1333;22889;-34
2022/10/13 04:20:58;;;;;;;51.80;19.60;;;;;;;1.21;100.00;100183.83;100431;1335;24489;-34
2022/10/13 04:23:24;;;;;;;35.50;16.60;;;;;;;1.21;100.00;100184.08;100665;1339;22895;-36
2022/10/13 04:25:49;;;;;;;33.50;18.40;;;;;;;1.21;100.00;100182.99;100739;1341;23263;-31
2022/10/13 04:28:16;;;;;;;35.50;17.40;;;;;;;1.21;100.00;100183.83;100509;1335;22520;-36
2022/10/13 04:30:41;;;;;;;34.90;16.50;;;;;;;1.22;100.00;100181.16;100657;1324;22751;-36
2022/10/13 04:33:07;;;;;;;38.90;18.30;;;;;;;1.22;100.00;100181.29;100493;1341;22518;-32
2022/10/13 04:35:32;;;;;;;39.00;17.80;;;;;;;1.22;100.00;100177.08;100671;1333;23102;-34
2022/10/13 04:37:58;;;;;;;31.00;16.00;;;;;;;1.23;100.00;100180.71;100639;1341;24379;-36
2022/10/13 04:40:24;;;;;;;39.50;17.20;;;;;;;1.23;100.00;100179.46;100765;1340;22895;-32
2022/10/13 04:42:50;;;;;;;35.20;20.30;;;;;;;1.23;100.00;100179.49;100725;1333;22779;-36
2022/10/13 04:45:16;;;;;;;26.10;12.50;;;;;;;1.21;100.00;100175.23;100687;1341;24491;-36
2022/10/13 04:47:42;;;;;;;31.00;14.00;;;;;;;1.20;100.00;100176.20;100665;1329;22731;-36
2022/10/13 04:50:08;;;;;;;36.70;18.90;;;;;;;1.17;100.00;100177.15;100761;1340;23064;-32
2022/10/13 04:52:34;;;;;;;32.70;15.50;;;;;;;1.15;100.00;100172.68;100682;1341;24082;-36
2022/10/13 04:54:59;;;;;;;40.20;20.10;;;;;;;1.15;100.00;100169.65;100746;1341;22561;-32
2022/10/13 04:57:25;;;;;;;23.90;15.20;;;;;;;1.17;100.00;100174.83;100291;1333;611358;-36
2022/10/13 04:59:50;;;;;;;29.20;15.00;;;;;;;1.14;100.00;100173.80;100689;1326;22530;-36
2022/10/13 05:02:16;;;;;;;32.50;18.20;;;;;;;1.10;100.00;100175.02;100727;1333;22890;-36
2022/10/13 05:04:42;;;;;;;39.00;18.90;;;;;;;1.05;100.00;100171.68;100641;1330;22875;-32
2022/10/13 05:07:07;;;;;;;38.20;18.80;;;;;;;1.05;100.00;100173.63;100684;1340;23090;-33
2022/10/13 05:09:33;;;;;;;42.70;18.80;;;;;;;1.06;100.00;100171.41;100726;1341;24376;-33
2022/10/13 05:11:59;;;;;;;40.70;15.70;;;;;;;1.06;100.00;100171.63;100705;1340;23134;-37
2022/10/13 05:14:24;;;;;;;53.30;20.30;;;;;;;1.07;100.00;100174.21;100701;1341;22522;-33
2022/10/13 05:16:50;;;;;;;32.80;15.20;;;;;;;1.10;100.00;100173.98;100445;1341;22741;-36
2022/10/13 05:19:15;;;;;;;34.20;15.60;;;;;;;1.11;100.00;100173.55;100682;1331;25564;-32
2022/10/13 05:21:41;;;;;;;43.90;19.50;;;;;;;1.11;100.00;100173.89;100717;1340;22607;-33
2022/10/13 05:24:11;;;;;;;36.10;17.00;;;;;;;1.15;100.00;100177.27;100527;1341;25579;-33
2022/10/13 05:26:39;;;;;;;29.50;14.30;;;;;;;1.23;100.00;100184.59;100699;1341;24420;-37
2022/10/13 05:29:05;;;;;;;29.50;14.20;;;;;;;1.28;100.00;100183.30;100728;1333;22571;-32
2022/10/13 05:31:32;;;;;;;52.60;15.50;;;;;;;1.32;100.00;100181.56;100751;1339;23067;-35
2022/10/13 05:33:57;;;;;;;46.20;17.30;;;;;;;1.38;100.00;100174.94;100499;1333;24491;-36
2022/10/13 05:36:26;;;;;;;41.70;15.10;;;;;;;1.45;100.00;100175.02;100539;1340;22864;-32
2022/10/13 05:38:53;;;;;;;40.00;16.30;;;;;;;1.51;100.00;100175.23;100763;1341;22908;-35
2022/10/13 05:41:19;;;;;;;45.20;18.70;;;;;;;1.61;100.00;100174.96;100703;1341;23105;-35
2022/10/13 05:43:45;;;;;;;53.20;16.80;;;;;;;1.68;100.00;100174.92;100778;1325;24499;-36
2022/10/13 05:46:10;;;;;;;40.60;17.00;;;;;;;1.75;100.00;100174.20;100768;1341;22761;-32
2022/10/13 05:48:36;;;;;;;35.30;18.50;;;;;;;1.80;100.00;100177.51;100706;1340;22752;-31
2022/10/13 05:51:06;;;;;;;30.30;14.10;;;;;;;1.86;100.00;100178.98;100667;1333;22752;-35
2022/10/13 05:53:33;;;;;;;37.90;16.90;;;;;;;1.92;100.00;100180.61;100723;1323;25619;-32
2022/10/13 05:56:05;;;;;;;31.10;16.20;;;;;;;1.98;100.00;100178.57;100507;1329;23093;-36
2022/10/13 05:58:32;;;;;;;25.40;14.00;;;;;;;2.05;100.00;100179.06;100711;1339;22751;-34
2022/10/13 06:00:58;;;;;;;31.70;13.10;;;;;;;2.13;100.00;100175.80;100698;1341;22502;-34
2022/10/13 06:03:23;;;;;;;37.80;14.50;;;;;;;2.20;100.00;100171.86;100495;1344;23239;-37
2022/10/13 06:05:49;;;;;;;25.80;14.70;;;;;;;2.28;100.00;100172.81;100713;1339;22750;-32
2022/10/13 06:08:15;;;;;;;24.70;14.20;;;;;;;2.36;100.00;100179.05;100664;1340;22776;-36
2022/10/13 06:10:41;;;;;;;47.10;16.70;;;;;;;2.43;100.00;100183.05;100692;1333;22858;-36
2022/10/13 06:13:08;;;;;;;24.10;13.30;;;;;;;2.51;100.00;100182.04;100679;1341;22505;-36
2022/10/13 06:15:33;;;;;;;33.40;14.50;;;;;;;2.63;100.00;100184.98;100726;1331;22759;-36
2022/10/13 06:17:59;;;;;;;36.30;18.50;;;;;;;2.73;100.00;100184.99;100733;1341;23125;-34
2022/10/13 06:20:26;;;;;;;31.80;17.90;;;;;;;2.82;100.00;100180.04;100725;1341;23357;-30
2022/10/13 06:22:54;;;;;;;28.80;13.80;;;;;;;2.91;100.00;100172.04;100659;1341;22893;-34
2022/10/13 06:25:20;;;;;;;23.30;12.40;;;;;;;3.02;100.00;100171.80;100681;1326;23131;-35
2022/10/13 06:27:45;;;;;;;18.90;11.00;;;;;;;3.13;100.00;100176.30;100647;1333;22770;-34
2022/10/13 06:30:11;;;;;;;30.60;11.00;;;;;;;3.20;100.00;100176.07;100496;1340;23184;-30
2022/10/13 06:32:37;;;;;;;19.40;12.00;;;;;;;3.24;100.00;100173.41;100652;1340;24373;-35
2022/10/13 06:35:03;;;;;;;25.10;13.40;;;;;;;3.30;100.00;100167.34;100710;1333;22526;-34
2022/10/13 06:37:29;;;;;;;35.00;15.90;;;;;;;3.36;100.00;100164.00;100721;1333;23237;-32
2022/10/13 06:39:55;;;;;;;35.30;15.40;;;;;;;3.42;100.00;100163.10;100756;1325;22507;-32
2022/10/13 06:42:20;;;;;;;25.80;14.80;;;;;;;3.51;100.00;100164.46;100705;1333;22751;-35
2022/10/13 06:44:45;;;;;;;28.80;11.80;;;;;;;3.62;100.00;100162.55;100722;1340;24908;-31
2022/10/13 06:47:11;;;;;;;21.90;13.60;;;;;;;3.79;100.00;100164.28;100649;1340;24908;-33
2022/10/13 06:49:37;;;;;;;52.30;19.00;;;;;;;3.99;100.00;100160.23;100659;1331;23169;-32
2022/10/13 06:52:03;;;;;;;42.60;18.30;;;;;;;4.20;100.00;100152.56;100659;1333;23226;-35
2022/10/13 06:54:29;;;;;;;31.20;17.60;;;;;;;4.39;100.00;100151.38;100740;1334;22892;-33
2022/10/13 06:56:55;;;;;;;33.40;16.50;;;;;;;4.57;100.00;100151.99;100600;1341;23531;-36
2022/10/13 06:59:20;;;;;;;34.20;16.30;;;;;;;4.83;100.00;100150.02;100648;1339;22763;-33
2022/10/13 07:01:47;;;;;;;19.40;9.60;;;;;;;5.10;100.00;100153.69;100643;1341;22749;-33
2022/10/13 07:04:13;;;;;;;27.80;14.60;;;;;;;5.37;100.00;100141.70;100674;1341;22738;-36
2022/10/13 07:06:39;;;;;;;21.90;12.70;;;;;;;5.68;100.00;100135.65;100680;1325;22747;-33
2022/10/13 07:09:05;;;;;;;21.90;12.70;;;;;;;5.99;100.00;100134.04;100725;1336;22907;-37
2022/10/13 07:11:31;;;;;;;26.50;14.10;;;;;;;6.25;100.00;100130.33;100729;1333;25296;-37
2022/10/13 07:13:56;;;;;;;30.20;15.20;;;;;;;6.51;100.00;100126.08;100557;1341;22889;-32
2022/10/13 07:16:22;;;;;;;15.00;11.50;;;;;;;6.73;100.00;100122.46;100719;1341;24383;-37
2022/10/13 07:18:48;;;;;;;25.70;11.60;;;;;;;6.92;100.00;100115.03;100409;1333;22751;-41
2022/10/13 07:21:13;;;;;;;26.50;12.60;;;;;;;7.14;100.00;100106.96;100711;1327;22888;-33
2022/10/13 07:23:39;;;;;;;22.80;13.10;;;;;;;7.34;100.00;100100.96;100680;1333;22886;-36
2022/10/13 07:26:07;;;;;;;14.90;11.30;;;;;;;7.57;100.00;100103.09;100703;1340;24383;-33
2022/10/13 07:28:33;;;;;;;29.00;11.60;;;;;;;7.87;100.00;100097.73;100702;1324;22524;-33
2022/10/13 07:30:59;;;;;;;16.00;10.30;;;;;;;8.08;100.00;100098.23;100727;1341;22751;-34
2022/10/13 07:33:25;;;;;;;25.30;12.30;;;;;;;8.19;100.00;100094.92;100704;1340;22739;-38
2022/10/13 07:35:50;;;;;;;22.10;11.70;;;;;;;8.42;100.00;100094.90;100731;1333;23058;-37
2022/10/13 07:38:16;;;;;;;21.80;10.80;;;;;;;8.71;100.00;100094.52;100593;1336;22771;-38
2022/10/13 07:40:41;;;;;;;29.90;12.70;;;;;;;8.97;100.00;100089.33;100718;1341;24296;-36
2022/10/13 07:43:07;;;;;;;18.60;11.40;;;;;;;9.19;100.00;100083.09;100735;1341;24963;-33
2022/10/13 07:45:32;;;;;;;19.10;10.20;;;;;;;9.42;100.00;100076.47;100704;1333;23051;-40
2022/10/13 07:47:58;;;;;;;13.00;8.10;;;;;;;9.62;97.64;100070.98;100676;1338;25327;-34
2022/10/13 07:50:23;;;;;;;25.40;12.30;;;;;;;9.77;95.01;100065.80;100638;1339;22893;-35
2022/10/13 07:52:49;;;;;;;21.40;10.00;;;;;;;9.90;93.73;100064.17;100673;1333;22897;-34
2022/10/13 07:55:14;;;;;;;22.20;10.50;;;;;;;10.05;93.65;100066.07;100516;1341;22744;-37
2022/10/13 07:57:40;;;;;;;16.90;10.20;;;;;;;10.33;95.85;100068.02;100723;1339;23703;-38
2022/10/13 08:00:07;;;;;;;19.30;10.00;;;;;;;10.57;95.57;100063.66;100702;1340;22876;-37
2022/10/13 08:02:33;;;;;;;21.60;10.60;;;;;;;10.72;92.35;100060.33;100513;1341;23090;-34
2022/10/13 08:04:59;;;;;;;18.40;9.50;;;;;;;10.94;92.98;100058.83;100777;1341;24262;-35
2022/10/13 08:07:24;;;;;;;10.90;7.80;;;;;;;11.16;92.89;100059.70;100656;1333;22516;-34
2022/10/13 08:09:50;;;;;;;21.30;11.40;;;;;;;11.26;90.93;100058.59;100626;1334;23092;-37
2022/10/13 08:12:15;;;;;;;17.00;10.50;;;;;;;11.47;89.59;100060.35;100706;1333;22749;-37
2022/10/13 08:14:41;;;;;;;24.20;9.40;;;;;;;11.66;87.96;100056.61;100689;1339;24300;-37
2022/10/13 08:17:07;;;;;;;29.10;9.50;;;;;;;11.80;87.93;100058.91;100648;1341;22646;-38
2022/10/13 08:19:32;;;;;;;20.30;9.50;;;;;;;12.01;87.65;100054.16;100726;1340;22741;-37
2022/10/13 08:21:58;;;;;;;15.90;11.80;;;;;;;12.04;83.91;100055.16;100440;1341;24315;-35
2022/10/13 08:24:24;;;;;;;18.70;10.20;;;;;;;12.31;85.86;100058.02;100634;1333;23243;-38
2022/10/13 08:26:49;;;;;;;18.20;11.60;;;;;;;12.59;87.25;100054.40;100699;1341;22877;-34
2022/10/13 08:29:16;;;;;;;21.70;12.00;;;;;;;12.77;83.47;100054.27;100671;1323;22763;-34
2022/10/13 08:31:43;;;;;;;21.80;12.20;;;;;;;13.02;82.23;100052.95;100723;1341;24983;-36
2022/10/13 08:34:09;;;;;;;26.60;11.90;;;;;;;13.27;81.43;100046.54;100629;1333;24823;-35
2022/10/13 08:36:35;;;;;;;17.60;9.20;;;;;;;13.43;82.22;100043.30;100684;1341;23108;-35
2022/10/13 08:39:00;;;;;;;18.00;9.10;;;;;;;13.68;82.17;100039.13;100691;1339;22898;-35
2022/10/13 08:41:29;;;;;;;20.80;10.20;;;;;;;13.85;80.64;100037.84;100632;1338;22994;-37
2022/10/13 08:43:56;;;;;;;23.30;8.70;;;;;;;14.06;80.56;100036.48;100527;1341;24497;-35
2022/10/13 08:46:27;;;;;;;20.70;11.60;;;;;;;14.21;79.02;100041.92;100785;1339;23090;-34
2022/10/13 08:48:53;;;;;;;18.70;9.60;;;;;;;14.28;77.70;100038.25;100704;1341;24422;-36
2022/10/13 08:51:18;;;;;;;35.90;9.80;;;;;;;14.47;76.51;100029.59;100729;1323;22762;-36
2022/10/13 08:53:45;;;;;;;17.10;9.80;;;;;;;14.66;75.90;100023.30;100531;1326;24279;-34
2022/10/13 08:56:19;;;;;;;19.30;11.40;;;;;;;14.83;74.07;100022.92;100642;1333;23319;-36
2022/10/13 08:58:45;;;;;;;22.30;9.70;;;;;;;15.02;73.52;100022.24;100727;1340;23101;-37
2022/10/13 09:01:16;;;;;;;13.60;8.60;;;;;;;15.10;74.20;100020.27;100694;1339;24299;-34
2022/10/13 09:03:43;;;;;;;15.80;9.40;;;;;;;15.24;72.96;100019.77;100647;1335;22889;-36
2022/10/13 09:06:14;;;;;;;20.50;10.10;;;;;;;15.27;71.65;100018.49;100690;1339;22753;-33
2022/10/13 09:08:43;;;;;;;21.60;10.20;;;;;;;15.33;71.04;100022.17;100695;1341;24442;-36
2022/10/13 09:11:11;;;;;;;22.90;13.50;;;;;;;15.51;71.63;100022.45;100607;1341;23279;-37
2022/10/13 09:13:36;;;;;;;22.90;12.70;;;;;;;15.70;69.51;100020.20;100756;1337;22879;-37
2022/10/13 09:16:02;;;;;;;21.00;10.50;;;;;;;15.71;66.91;100015.11;100726;1339;23062;-35
2022/10/13 09:18:30;;;;;;;32.20;14.80;;;;;;;15.70;65.45;100012.50;100644;1340;22512;-35
2022/10/13 09:21:02;;;;;;;22.60;15.00;;;;;;;15.85;66.24;100015.48;100692;1341;25351;-35
2022/10/13 09:23:28;;;;;;;15.60;9.50;;;;;;;15.98;65.37;100013.20;100495;1340;22990;-39
2022/10/13 09:25:57;;;;;;;21.50;10.20;;;;;;;16.09;64.41;100014.51;100656;1341;23204;-35
2022/10/13 09:28:25;;;;;;;17.40;10.70;;;;;;;16.29;65.27;100013.88;100665;1333;24288;-35
2022/10/13 09:30:58;;;;;;;14.40;7.60;;;;;;;16.47;63.60;100013.80;100711;1333;24467;-35
2022/10/13 09:33:25;;;;;;;14.70;5.90;;;;;;;16.60;61.64;100017.50;100714;1341;22738;-35
2022/10/13 09:35:54;;;;;;;18.60;8.30;;;;;;;16.81;61.58;100014.13;100686;1341;22779;-35
2022/10/13 09:38:21;;;;;;;19.10;8.50;;;;;;;17.03;62.05;100013.60;100656;1339;23176;-35
2022/10/13 09:40:55;;;;;;;14.90;7.90;;;;;;;17.21;61.11;100009.37;100556;1334;22762;-38
2022/10/13 09:43:24;;;;;;;26.80;9.60;;;;;;;17.34;60.25;100002.52;100652;1333;24372;-35
2022/10/13 09:45:51;;;;;;;13.50;7.20;;;;;;;17.43;57.80;100000.85;100705;1333;22753;-35
2022/10/13 09:48:20;;;;;;;10.30;5.90;;;;;;;17.62;58.92;100001.85;100643;1333;24381;-37
2022/10/13 09:50:48;;;;;;;11.80;6.80;;;;;;;17.81;56.95;99999.40;100703;1341;22514;-34
2022/10/13 09:53:34;;;;;;;12.60;6.00;;;;;;;17.92;56.73;99994.70;100696;1340;22764;-36
2022/10/13 09:56:07;;;;;;;32.80;6.50;;;;;;;17.99;54.81;99995.86;100716;1334;24379;-37
2022/10/13 09:58:33;;;;;;;14.70;6.20;;;;;;;18.01;54.88;99995.46;100653;1341;26670;-35
2022/10/13 10:00:58;;;;;;;6.50;2.80;;;;;;;18.15;53.00;99993.05;100641;1339;22507;-37
2022/10/13 10:03:29;;;;;;;9.60;5.60;;;;;;;18.45;54.12;99986.74;100656;1340;22873;-38
2022/10/13 10:05:56;;;;;;;11.90;6.60;;;;;;;18.68;54.18;99984.53;100691;1340;23245;-38
2022/10/13 10:08:26;;;;;;;18.20;7.00;;;;;;;18.95;53.39;99988.84;100512;1333;24375;-35
2022/10/13 10:10:51;;;;;;;8.30;6.30;;;;;;;19.22;51.16;99982.74;100688;1333;22853;-35
2022/10/13 10:13:17;;;;;;;11.90;6.00;;;;;;;19.41;49.18;99983.58;100689;1340;22519;-38
2022/10/13 10:15:48;;;;;;;13.00;5.70;;;;;;;19.45;48.35;99983.91;100469;1341;22887;-35
2022/10/13 10:18:17;;;;;;;8.80;5.30;;;;;;;19.85;47.72;99981.38;100656;1341;24319;-38
2022/10/13 10:20:50;;;;;;;16.50;5.30;;;;;;;19.50;47.95;99975.59;100622;1340;22503;-36
2022/10/13 10:23:36;;;;;;;14.90;6.50;;;;;;;19.85;48.74;99972.12;100671;1333;22511;-36
2022/10/13 10:26:08;;;;;;;9.90;4.70;;;;;;;20.41;47.48;99970.14;100465;1343;23115;-38
2022/10/13 10:28:37;;;;;;;23.70;5.20;;;;;;;20.50;43.60;99968.61;100690;1341;22501;-37
2022/10/13 10:31:11;;;;;;;6.70;4.20;;;;;;;20.24;44.90;99967.88;100660;1316;22713;-34
2022/10/13 10:33:44;;;;;;;4.80;2.10;;;;;;;20.60;45.51;99961.12;100641;1341;24293;-37
2022/10/13 10:36:15;;;;;;;11.90;5.70;;;;;;;20.75;42.90;99959.09;100707;1326;22501;-35
2022/10/13 10:38:48;;;;;;;12.60;4.80;;;;;;;20.32;43.15;99961.76;100672;1341;23920;-37
2022/10/13 10:41:17;;;;;;;5.80;4.60;;;;;;;20.28;43.08;99962.02;100626;1333;23331;-34
2022/10/13 10:43:49;;;;;;;11.30;6.80;;;;;;;20.28;41.94;99959.92;100745;1333;22763;-35
2022/10/13 10:46:17;;;;;;;;;;;;;;;20.02;42.18;99952.94;100728;1341;22962;-34
2022/10/13 10:48:45;;;;;;;8.70;4.70;;;;;;;19.76;43.42;99952.76;100707;1326;22869;-36
2022/10/13 10:51:10;;;;;;;13.90;7.00;;;;;;;19.69;44.68;99949.56;100732;1333;22866;-39
2022/10/13 10:53:44;;;;;;;11.30;5.50;;;;;;;20.11;45.09;99950.30;100562;1341;23132;-35
2022/10/13 10:56:18;;;;;;;16.90;6.00;;;;;;;20.58;45.20;99949.47;100724;1331;22532;-34
2022/10/13 10:58:47;;;;;;;12.40;5.60;;;;;;;20.95;44.50;99943.48;100615;1331;23093;-34
2022/10/13 11:01:21;;;;;;;8.80;5.50;;;;;;;21.27;43.62;99935.73;100537;1341;22629;-35
2022/10/13 11:03:47;;;;;;;9.90;7.20;;;;;;;21.28;41.82;99934.16;100743;1341;22506;-34